Terminal Aerodrome Forecast
Issued by NWS Tulsa, OK

Home | Current Version | Previous Version | Text Only | Print | Product List | Glossary On
Versions: 1 2 3 4 5 6 7 8 9 10 11 12 13 14
083
FTUS44 KTSA 171121
TAFFSM
TAF
KFSM 171121Z 1712/1812 08004KT P6SM SCT250
     FM171800 11004KT P6SM SKC
     FM180300 08002KT P6SM SKC=

USA.gov is the U.S. government's official web portal to all federal, state and local government web resources and services.